Time;durP1;ratioP1;P1;durP2;ratioP2;P2;SDS_P1;SDS_P2;PMS_P1;PMS_P2;Temp;Humidity;BMP_temperature;BMP_pressure;BME280_temperature;BME280_humidity;BME280_pressure;Samples;Min_cycle;Max_cycle;Signal;HPM_P1;HPM_P2
2021/09/27 00:01:08;;;;;;;19.23;12.25;;;16.00;99.90;;;;;;5049539;28;19967;-63
2021/09/27 00:03:35;;;;;;;22.02;14.20;;;16.00;99.90;;;;;;5063148;28;20124;-64
2021/09/27 00:06:01;;;;;;;23.85;15.13;;;16.00;99.90;;;;;;5061909;28;20087;-63
2021/09/27 00:08:27;;;;;;;21.48;13.32;;;16.00;99.90;;;;;;5061639;28;20040;-65
2021/09/27 00:10:54;;;;;;;;;;;16.00;99.90;;;;;;5062753;28;20037;-65
2021/09/27 00:13:22;;;;;;;23.40;12.45;;;16.00;99.90;;;;;;5062635;28;19999;-65
2021/09/27 00:15:52;;;;;;;21.80;13.30;;;16.00;99.90;;;;;;5062260;28;20036;-64
2021/09/27 00:18:18;;;;;;;21.08;14.20;;;16.00;99.90;;;;;;5052265;28;20109;-63
2021/09/27 00:20:48;;;;;;;20.13;14.00;;;16.00;99.90;;;;;;5049926;28;20120;-63
2021/09/27 00:23:15;;;;;;;17.02;12.57;;;16.00;99.90;;;;;;5049635;28;20481;-63
2021/09/27 00:25:42;;;;;;;18.30;12.52;;;16.00;99.90;;;;;;5048237;28;20044;-64
2021/09/27 00:28:09;;;;;;;16.42;12.80;;;16.00;99.90;;;;;;5042949;28;20044;-63
2021/09/27 00:30:35;;;;;;;16.08;12.30;;;15.90;99.90;;;;;;5046895;28;20052;-64
2021/09/27 00:33:00;;;;;;;;;;;15.90;99.90;;;;;;5050030;28;20033;-63
2021/09/27 00:35:29;;;;;;;15.40;11.60;;;15.90;99.90;;;;;;5049513;28;19913;-63
2021/09/27 00:37:55;;;;;;;20.50;13.88;;;15.90;99.90;;;;;;5048278;28;20033;-63
2021/09/27 00:40:26;;;;;;;;;;;15.80;99.90;;;;;;5049379;28;20037;-63
2021/09/27 00:42:53;;;;;;;18.17;12.65;;;15.80;99.90;;;;;;5049533;28;19917;-64
2021/09/27 00:45:22;;;;;;;18.10;12.30;;;15.80;99.90;;;;;;5049183;28;20098;-64
2021/09/27 00:47:47;;;;;;;20.55;12.35;;;15.80;99.90;;;;;;5048127;28;20048;-64
2021/09/27 00:50:15;;;;;;;;;;;15.80;99.90;;;;;;5049870;28;20037;-64
2021/09/27 00:52:42;;;;;;;15.88;10.75;;;15.80;99.90;;;;;;5047861;28;19916;-63
2021/09/27 00:55:11;;;;;;;18.13;12.30;;;15.80;99.90;;;;;;5048735;28;20123;-64
2021/09/27 00:57:37;;;;;;;17.42;11.20;;;15.80;99.90;;;;;;5047365;28;20044;-63
2021/09/27 01:00:05;;;;;;;18.67;11.48;;;15.80;99.90;;;;;;5047166;28;20048;-64
2021/09/27 01:02:32;;;;;;;16.30;10.77;;;15.80;99.90;;;;;;5047487;28;20547;-65
2021/09/27 01:04:57;;;;;;;16.15;10.63;;;15.80;99.90;;;;;;5048756;28;20655;-63
2021/09/27 01:07:38;;;;;;;;;;;15.80;99.90;;;;;;5047859;28;20051;-64
2021/09/27 01:10:29;;;;;;;16.75;10.43;;;15.80;99.90;;;;;;5042212;28;20773;-64
2021/09/27 01:12:54;;;;;;;14.55;10.68;;;15.70;99.90;;;;;;5048550;28;20457;-64
2021/09/27 01:15:41;;;;;;;;;;;15.70;99.90;;;;;;5048748;28;20175;-65
2021/09/27 01:18:36;;;;;;;29.40;18.27;;;15.70;99.90;;;;;;5048311;28;19921;-64
2021/09/27 01:21:40;;;;;;;23.83;15.52;;;15.80;99.90;;;;;;5047529;28;20460;-64
2021/09/27 01:24:24;;;;;;;17.73;12.20;;;15.70;99.90;;;;;;5031913;28;20076;-65
2021/09/27 01:27:09;;;;;;;16.40;10.10;;;15.70;99.90;;;;;;5047026;28;20036;-64
2021/09/27 01:30:10;;;;;;;16.35;11.15;;;15.70;99.90;;;;;;5039219;28;20037;-64
2021/09/27 01:32:46;;;;;;;14.30;9.57;;;15.70;99.90;;;;;;4966233;28;20047;-64
2021/09/27 01:35:16;;;;;;;;;;;15.70;99.90;;;;;;5038208;28;20045;-65
2021/09/27 01:38:00;;;;;;;13.10;9.35;;;15.70;99.90;;;;;;5047100;28;19966;-64
2021/09/27 01:40:44;;;;;;;17.60;10.57;;;15.70;99.90;;;;;;5048412;28;20489;-64
2021/09/27 01:43:21;;;;;;;14.82;10.10;;;15.60;99.90;;;;;;5048617;28;20045;-64
2021/09/27 01:45:55;;;;;;;13.23;9.73;;;15.60;99.90;;;;;;5046728;28;20436;-63
2021/09/27 01:48:32;;;;;;;13.55;9.88;;;15.60;99.90;;;;;;5047134;28;20037;-64
2021/09/27 01:51:09;;;;;;;12.90;9.50;;;15.60;99.90;;;;;;5048447;28;20037;-63
2021/09/27 01:53:46;;;;;;;15.00;10.13;;;15.50;99.90;;;;;;5046897;28;20403;-63
2021/09/27 01:56:13;;;;;;;17.63;10.38;;;15.50;99.90;;;;;;5046763;28;20066;-63
2021/09/27 01:58:55;;;;;;;16.17;10.85;;;15.50;99.90;;;;;;5047640;28;20036;-61
2021/09/27 02:01:41;;;;;;;17.02;10.45;;;15.50;99.90;;;;;;5046963;28;20120;-63
2021/09/27 02:04:22;;;;;;;14.75;9.95;;;15.50;99.90;;;;;;5047975;28;20446;-62
2021/09/27 02:06:50;;;;;;;17.55;9.60;;;15.50;99.90;;;;;;5045718;28;20080;-65
2021/09/27 02:09:33;;;;;;;15.07;9.15;;;15.50;99.90;;;;;;5047607;28;20668;-64
2021/09/27 02:12:08;;;;;;;18.17;9.73;;;15.50;99.90;;;;;;5047313;28;20041;-63
2021/09/27 02:14:53;;;;;;;13.77;9.65;;;15.50;99.90;;;;;;5046894;28;20041;-63
2021/09/27 02:17:48;;;;;;;19.02;9.93;;;15.50;99.90;;;;;;5045392;28;20126;-63
2021/09/27 02:20:26;;;;;;;12.27;9.02;;;15.50;99.90;;;;;;5047232;28;20044;-63
2021/09/27 02:23:01;;;;;;;13.90;9.13;;;15.30;99.90;;;;;;5046214;28;20056;-63
2021/09/27 02:25:34;;;;;;;11.55;8.45;;;15.30;99.90;;;;;;5046295;28;20114;-64
2021/09/27 02:28:03;;;;;;;15.52;9.82;;;15.40;99.90;;;;;;5046223;28;20045;-63
2021/09/27 02:30:41;;;;;;;12.45;7.97;;;15.30;99.90;;;;;;5046759;28;20135;-60
2021/09/27 02:33:18;;;;;;;13.95;8.10;;;15.30;99.90;;;;;;5047320;28;20594;-64
2021/09/27 02:35:47;;;;;;;15.98;7.55;;;15.30;99.90;;;;;;5046105;28;20052;-63
2021/09/27 02:38:42;;;;;;;15.40;8.02;;;15.20;99.90;;;;;;5046292;28;20041;-63
2021/09/27 02:41:26;;;;;;;11.40;7.63;;;15.20;99.90;;;;;;5037158;28;20053;-64
2021/09/27 02:43:51;;;;;;;11.18;7.43;;;15.10;99.90;;;;;;5047085;28;20412;-64
2021/09/27 02:46:19;;;;;;;;;;;15.20;99.90;;;;;;5045032;28;20041;-64
2021/09/27 02:51:43;;;;;;;13.70;7.60;;;15.00;99.90;;;;;;5032782;28;20096;-63
2021/09/27 02:54:10;;;;;;;19.98;7.57;;;15.10;99.90;;;;;;5047255;28;20441;-64
2021/09/27 02:56:48;;;;;;;10.95;7.28;;;15.00;99.90;;;;;;5045198;28;20136;-63
2021/09/27 02:59:51;;;;;;;15.60;8.02;;;15.10;99.90;;;;;;5046547;28;20051;-64
2021/09/27 03:02:26;;;;;;;12.27;7.55;;;15.00;99.90;;;;;;5046362;28;20037;-63
2021/09/27 03:05:13;;;;;;;12.18;8.80;;;15.00;99.90;;;;;;5046000;28;20073;-64
2021/09/27 03:08:08;;;;;;;12.55;7.97;;;15.00;99.90;;;;;;5045170;28;20036;-64
2021/09/27 03:10:45;;;;;;;13.30;8.57;;;15.00;99.90;;;;;;5025620;28;20441;-64
2021/09/27 03:13:14;;;;;;;14.38;8.38;;;14.90;99.90;;;;;;5045117;28;20106;-64
2021/09/27 03:16:10;;;;;;;18.50;9.18;;;14.80;99.90;;;;;;5045109;28;20067;-63
2021/09/27 03:18:54;;;;;;;11.85;7.10;;;14.80;99.90;;;;;;5032634;28;20044;-62
2021/09/27 03:22:01;;;;;;;13.90;7.80;;;14.70;99.90;;;;;;5025688;28;20038;-64
2021/09/27 03:24:40;;;;;;;19.13;8.60;;;14.60;99.90;;;;;;5025635;28;20049;-62
2021/09/27 03:27:06;;;;;;;12.73;7.65;;;14.60;99.90;;;;;;5025697;28;20080;-68
2021/09/27 03:29:42;;;;;;;;;;;14.60;99.90;;;;;;5026788;28;20549;-64
2021/09/27 03:32:39;;;;;;;11.77;8.15;;;14.60;99.90;;;;;;5042024;28;19955;-63
2021/09/27 03:35:29;;;;;;;12.52;8.38;;;14.60;99.90;;;;;;5045457;28;20427;-64
2021/09/27 03:38:14;;;;;;;14.98;7.80;;;14.50;99.90;;;;;;5044696;28;20524;-62
2021/09/27 03:41:07;;;;;;;11.00;7.70;;;14.40;99.90;;;;;;5038352;28;20052;-63
2021/09/27 03:43:59;;;;;;;14.40;7.80;;;14.40;99.90;;;;;;5035043;28;20044;-63
2021/09/27 03:46:36;;;;;;;12.30;8.55;;;14.40;99.90;;;;;;5043773;28;20041;-63
2021/09/27 03:49:32;;;;;;;14.50;7.15;;;14.40;99.90;;;;;;5045381;28;20045;-63
2021/09/27 03:52:07;;;;;;;14.00;7.55;;;14.40;99.90;;;;;;5046248;28;20052;-63
2021/09/27 03:54:47;;;;;;;11.15;7.85;;;14.40;99.90;;;;;;5048322;28;20044;-63
2021/09/27 03:57:18;;;;;;;12.75;7.82;;;14.40;99.90;;;;;;5048425;28;20071;-63
2021/09/27 04:00:09;;;;;;;12.85;7.28;;;14.30;99.90;;;;;;5055358;28;20697;-65
2021/09/27 04:02:38;;;;;;;11.73;7.63;;;14.40;99.90;;;;;;5064066;28;20045;-64
2021/09/27 04:05:26;;;;;;;12.60;7.65;;;14.40;99.90;;;;;;5068959;28;20612;-64
2021/09/27 04:08:22;;;;;;;12.93;6.80;;;14.40;99.90;;;;;;5056347;28;20609;-63
2021/09/27 04:11:18;;;;;;;12.73;7.20;;;14.50;99.90;;;;;;5048371;28;20029;-62
2021/09/27 04:14:04;;;;;;;12.07;6.97;;;14.50;99.90;;;;;;5049282;28;20037;-63
2021/09/27 04:17:03;;;;;;;16.35;6.95;;;14.50;99.90;;;;;;5039529;28;20036;-64
2021/09/27 04:19:47;;;;;;;11.05;7.20;;;14.50;99.90;;;;;;5041375;28;20037;-64
2021/09/27 04:22:27;;;;;;;13.70;7.82;;;14.50;99.90;;;;;;5037654;28;20245;-65
2021/09/27 04:25:17;;;;;;;12.07;7.10;;;14.40;99.90;;;;;;5049061;28;20412;-63
2021/09/27 04:27:48;;;;;;;10.63;7.60;;;14.40;99.90;;;;;;5035470;28;20041;-64
2021/09/27 04:30:29;;;;;;;15.93;7.65;;;14.40;99.90;;;;;;5034190;28;20037;-64
2021/09/27 04:33:13;;;;;;;11.82;7.32;;;14.40;99.90;;;;;;5032675;28;20053;-64
2021/09/27 04:35:58;;;;;;;15.30;7.80;;;14.30;99.90;;;;;;5047038;28;20084;-62
2021/09/27 04:38:33;;;;;;;16.20;7.55;;;14.40;99.90;;;;;;5040575;28;20504;-63
2021/09/27 04:41:09;;;;;;;12.05;7.72;;;14.30;99.90;;;;;;5048733;28;20562;-64
2021/09/27 04:44:09;;;;;;;12.35;6.57;;;14.20;99.90;;;;;;5040549;28;20041;-62
2021/09/27 04:47:05;;;;;;;10.93;6.60;;;14.20;99.90;;;;;;5047922;28;20064;-62
2021/09/27 04:49:37;;;;;;;11.82;7.38;;;14.30;99.90;;;;;;5049883;28;20037;-63
2021/09/27 04:52:32;;;;;;;12.50;7.63;;;14.30;99.90;;;;;;5048312;28;20121;-63
2021/09/27 04:55:21;;;;;;;13.45;7.05;;;14.30;99.90;;;;;;5048856;28;20149;-62
2021/09/27 04:58:22;;;;;;;14.57;7.68;;;14.20;99.90;;;;;;5047224;28;20037;-63
2021/09/27 05:01:19;;;;;;;15.00;6.70;;;14.20;99.90;;;;;;5048003;28;20029;-64
2021/09/27 05:03:56;;;;;;;;;;;14.20;99.90;;;;;;5021344;28;20048;-64
2021/09/27 05:07:00;;;;;;;13.73;7.68;;;14.10;99.90;;;;;;5047332;28;19991;-64
2021/09/27 05:09:39;;;;;;;11.00;7.15;;;14.00;99.90;;;;;;5044424;28;20041;-63
2021/09/27 05:12:10;;;;;;;12.65;7.15;;;14.00;99.90;;;;;;5040104;28;20049;-64
2021/09/27 05:14:59;;;;;;;12.68;6.63;;;14.00;99.90;;;;;;5039783;28;20029;-62
2021/09/27 05:17:42;;;;;;;10.68;6.93;;;14.00;99.90;;;;;;5037659;28;20053;-64
2021/09/27 05:20:25;;;;;;;13.05;7.38;;;14.00;99.90;;;;;;5038737;28;20829;-63
2021/09/27 05:23:06;;;;;;;12.75;7.25;;;14.00;99.90;;;;;;5028634;28;20034;-64
2021/09/27 05:25:59;;;;;;;13.98;7.35;;;13.90;99.90;;;;;;5028452;28;20033;-62
2021/09/27 05:28:53;;;;;;;14.02;7.43;;;13.80;99.90;;;;;;5042164;28;20079;-62
2021/09/27 05:31:35;;;;;;;12.07;7.68;;;13.70;99.90;;;;;;5034102;28;20033;-64
2021/09/27 05:34:20;;;;;;;12.73;7.57;;;13.70;99.90;;;;;;5046016;28;20057;-63
2021/09/27 05:37:23;;;;;;;17.05;9.43;;;13.60;99.90;;;;;;5046144;28;20072;-63
2021/09/27 05:40:14;;;;;;;61.17;40.25;;;13.60;99.90;;;;;;5039956;28;20048;-63
2021/09/27 05:43:01;;;;;;;45.42;29.38;;;13.60;99.90;;;;;;5047619;28;20126;-63
2021/09/27 05:45:38;;;;;;;;;;;13.60;99.90;;;;;;5047536;28;20481;-62
2021/09/27 05:48:22;;;;;;;18.98;12.48;;;13.60;99.90;;;;;;5038246;28;20011;-63
2021/09/27 05:51:19;;;;;;;16.05;9.30;;;13.50;99.90;;;;;;5028563;28;20604;-62
2021/09/27 05:54:13;;;;;;;11.85;7.80;;;13.40;99.90;;;;;;5032710;28;20045;-62
2021/09/27 05:56:57;;;;;;;48.65;27.90;;;13.40;99.90;;;;;;5045851;28;20047;-63
2021/09/27 05:59:28;;;;;;;22.60;14.97;;;13.50;99.90;;;;;;5038711;28;20099;-62
2021/09/27 06:02:20;;;;;;;15.73;9.43;;;13.60;99.90;;;;;;5033304;28;20041;-62
2021/09/27 06:05:13;;;;;;;29.08;16.48;;;13.70;99.90;;;;;;5024653;28;20107;-63
2021/09/27 06:07:50;;;;;;;16.70;10.93;;;13.70;99.90;;;;;;5043863;28;20036;-63
2021/09/27 06:10:29;;;;;;;19.13;10.15;;;13.80;99.90;;;;;;5036994;28;20576;-63
2021/09/27 06:13:11;;;;;;;11.93;8.93;;;13.80;99.90;;;;;;5034688;28;20041;-62
2021/09/27 06:15:51;;;;;;;13.20;8.15;;;13.90;99.90;;;;;;5045251;28;20033;-63
2021/09/27 06:18:44;;;;;;;13.52;8.05;;;14.00;99.90;;;;;;5044109;28;20045;-63
2021/09/27 06:21:17;;;;;;;11.18;7.97;;;14.00;99.90;;;;;;5035253;28;20734;-63
2021/09/27 06:24:09;;;;;;;14.00;8.10;;;14.10;99.90;;;;;;5034896;28;20037;-62
2021/09/27 06:26:44;;;;;;;15.00;7.35;;;14.10;99.90;;;;;;5025768;28;20041;-63
2021/09/27 06:29:30;;;;;;;14.27;8.15;;;14.20;99.90;;;;;;5026919;28;20041;-63
2021/09/27 06:32:27;;;;;;;11.38;7.80;;;14.20;99.90;;;;;;5026756;28;20513;-60
2021/09/27 06:34:57;;;;;;;17.15;7.80;;;14.30;99.90;;;;;;5027094;28;20037;-56
2021/09/27 06:37:24;;;;;;;15.65;8.25;;;14.50;99.90;;;;;;5030422;28;20132;-59
2021/09/27 06:39:51;;;;;;;12.25;7.47;;;14.60;99.90;;;;;;5046535;28;20076;-59
2021/09/27 06:42:17;;;;;;;16.83;7.72;;;14.70;99.90;;;;;;5046299;28;20469;-58
2021/09/27 06:44:45;;;;;;;;;;;14.80;99.90;;;;;;5047204;28;20060;-62
2021/09/27 06:47:11;;;;;;;13.02;7.72;;;14.80;99.90;;;;;;5045911;28;19920;-61
2021/09/27 06:49:38;;;;;;;11.52;7.28;;;14.70;99.90;;;;;;5047163;28;20068;-64
2021/09/27 06:52:03;;;;;;;11.32;7.50;;;14.70;99.90;;;;;;5046868;28;20512;-65
2021/09/27 06:54:29;;;;;;;;;;;14.70;99.90;;;;;;5046910;28;20041;-64
2021/09/27 06:56:55;;;;;;;10.90;6.82;;;14.80;99.90;;;;;;5037971;28;19970;-65
2021/09/27 06:59:20;;;;;;;;;;;14.70;99.90;;;;;;5042137;28;20082;-66
2021/09/27 07:01:47;;;;;;;10.25;5.80;;;14.70;99.90;;;;;;5045497;28;20273;-65
2021/09/27 07:04:13;;;;;;;37.33;25.73;;;14.80;99.90;;;;;;5046639;28;20544;-64
2021/09/27 07:06:39;;;;;;;;;;;14.80;99.90;;;;;;5036676;28;20037;-66
2021/09/27 07:09:04;;;;;;;11.23;7.60;;;14.90;99.90;;;;;;5045846;28;19924;-64
2021/09/27 07:11:30;;;;;;;;;;;14.80;99.90;;;;;;5045684;28;20119;-63
2021/09/27 07:13:55;;;;;;;16.55;10.52;;;14.80;99.90;;;;;;5045726;28;19916;-64
2021/09/27 07:16:21;;;;;;;;;;;14.90;99.90;;;;;;5039293;28;20062;-63
2021/09/27 07:18:47;;;;;;;16.55;7.90;;;14.90;99.90;;;;;;5039124;28;19999;-63
2021/09/27 07:21:12;;;;;;;;;;;15.00;99.90;;;;;;5038563;28;20040;-64
2021/09/27 07:23:39;;;;;;;7.22;5.00;;;15.00;99.90;;;;;;5037350;28;19925;-65
2021/09/27 07:26:10;;;;;;;8.85;5.32;;;15.00;99.90;;;;;;5044203;28;20044;-64
2021/09/27 07:28:36;;;;;;;8.30;5.28;;;15.10;99.90;;;;;;5049052;28;20041;-63
2021/09/27 07:31:02;;;;;;;;;;;15.10;99.90;;;;;;5050541;28;20049;-63
2021/09/27 07:33:28;;;;;;;6.18;4.35;;;15.20;99.90;;;;;;5050212;28;19947;-63
2021/09/27 07:35:55;;;;;;;;;;;15.20;99.90;;;;;;5049756;28;20123;-63
2021/09/27 07:38:21;;;;;;;8.48;4.57;;;15.20;99.90;;;;;;5049734;28;20016;-63
2021/09/27 07:40:47;;;;;;;8.60;5.63;;;15.30;99.90;;;;;;5050301;28;20919;-63
2021/09/27 07:43:12;;;;;;;;;;;15.30;99.90;;;;;;5050036;28;20083;-63
2021/09/27 07:45:38;;;;;;;6.05;4.25;;;15.40;99.90;;;;;;5048557;28;19921;-63
2021/09/27 07:48:09;;;;;;;;;;;15.40;99.90;;;;;;5049891;28;20037;-63
2021/09/27 07:50:35;;;;;;;6.70;4.60;;;15.40;99.90;;;;;;5049751;28;19924;-63
2021/09/27 07:53:01;;;;;;;;;;;15.50;99.90;;;;;;5050207;28;20047;-63
2021/09/27 07:55:27;;;;;;;5.63;4.20;;;15.40;99.90;;;;;;5050583;28;19916;-63
2021/09/27 07:57:53;;;;;;;10.95;5.28;;;15.50;99.90;;;;;;5046915;28;20040;-63
2021/09/27 08:00:18;;;;;;;;;;;15.60;99.90;;;;;;5049799;28;20041;-63
2021/09/27 08:02:45;;;;;;;7.30;5.03;;;15.60;99.90;;;;;;5049518;28;19917;-63
2021/09/27 08:05:15;;;;;;;13.98;7.22;;;15.70;99.90;;;;;;5049409;28;20045;-64
2021/09/27 08:07:41;;;;;;;8.15;5.28;;;15.80;99.90;;;;;;5048133;28;20037;-63
2021/09/27 08:10:07;;;;;;;;;;;15.90;99.90;;;;;;5050437;28;20025;-64
2021/09/27 08:12:36;;;;;;;7.50;5.20;;;16.00;99.90;;;;;;5049477;28;20312;-64
2021/09/27 08:15:06;;;;;;;6.63;4.90;;;16.30;99.90;;;;;;5049251;28;20041;-63
2021/09/27 08:17:32;;;;;;;8.38;5.20;;;16.30;99.90;;;;;;5048200;28;20044;-63
2021/09/27 08:20:00;;;;;;;;;;;16.30;99.90;;;;;;5048892;28;20055;-64
2021/09/27 08:22:25;;;;;;;7.18;4.72;;;16.40;99.90;;;;;;5049993;28;20365;-63
2021/09/27 08:24:51;;;;;;;;;;;16.40;99.90;;;;;;5050415;28;20124;-63
2021/09/27 08:27:17;;;;;;;8.88;6.00;;;16.40;99.90;;;;;;5047719;28;19920;-63
2021/09/27 08:29:42;;;;;;;;;;;16.30;99.90;;;;;;5049994;28;20045;-63
2021/09/27 08:32:08;;;;;;;14.23;8.48;;;16.20;99.90;;;;;;5048598;28;20504;-63
2021/09/27 08:34:33;;;;;;;;;;;16.20;99.90;;;;;;5049850;28;20087;-64
2021/09/27 08:36:59;;;;;;;12.60;7.90;;;16.10;99.90;;;;;;5048427;28;19917;-64
2021/09/27 08:39:24;;;;;;;;;;;16.10;99.90;;;;;;5048562;28;21210;-63
2021/09/27 08:42:00;;;;;;;11.27;8.05;;;16.00;99.90;;;;;;5049334;28;20369;-64
2021/09/27 08:44:34;;;;;;;11.85;8.02;;;15.90;99.90;;;;;;5048762;28;20560;-63
2021/09/27 08:47:25;;;;;;;11.25;7.57;;;15.90;99.90;;;;;;5046961;28;20063;-64
2021/09/27 08:49:59;;;;;;;9.73;7.10;;;16.10;99.90;;;;;;5049226;28;20525;-63
2021/09/27 08:52:27;;;;;;;12.55;8.43;;;16.20;99.90;;;;;;5048603;28;20559;-63
2021/09/27 08:54:54;;;;;;;11.68;8.02;;;16.40;99.90;;;;;;5048714;28;20048;-64
2021/09/27 08:57:39;;;;;;;10.48;7.40;;;16.40;99.90;;;;;;5040404;28;20041;-64
2021/09/27 09:00:43;;;;;;;12.02;7.00;;;16.50;99.90;;;;;;5028692;28;20502;-64
2021/09/27 09:03:16;;;;;;;8.85;6.85;;;16.50;99.90;;;;;;5022497;28;20405;-63
2021/09/27 09:06:07;;;;;;;11.80;7.43;;;16.40;99.90;;;;;;5027522;28;20045;-63
2021/09/27 09:08:52;;;;;;;11.75;7.80;;;16.30;99.90;;;;;;5044153;28;20321;-64
2021/09/27 09:11:30;;;;;;;13.20;7.35;;;16.30;99.90;;;;;;5047920;28;20049;-63
2021/09/27 09:14:19;;;;;;;13.43;8.65;;;16.30;99.90;;;;;;5047303;28;20112;-63
2021/09/27 09:16:48;;;;;;;10.95;7.32;;;16.30;99.90;;;;;;5032108;28;20049;-64
2021/09/27 09:19:19;;;;;;;14.10;8.25;;;16.30;99.90;;;;;;5048985;28;20048;-63
2021/09/27 09:21:53;;;;;;;16.08;8.48;;;16.30;99.90;;;;;;5048043;28;20116;-64
2021/09/27 09:24:26;;;;;;;11.88;8.30;;;16.20;99.90;;;;;;5048069;28;20114;-63
2021/09/27 09:26:57;;;;;;;13.98;8.40;;;16.30;99.90;;;;;;5045305;28;20037;-63
2021/09/27 09:29:30;;;;;;;15.25;8.85;;;16.30;99.90;;;;;;5039173;28;20447;-63
2021/09/27 09:32:04;;;;;;;14.13;9.60;;;16.50;99.90;;;;;;5047569;28;20040;-64
2021/09/27 09:34:34;;;;;;;11.57;7.80;;;16.80;99.90;;;;;;5048370;28;20116;-63
2021/09/27 09:37:08;;;;;;;9.90;7.55;;;17.00;99.90;;;;;;5041244;28;20507;-63
2021/09/27 09:40:00;;;;;;;12.95;7.97;;;17.20;99.90;;;;;;5044256;28;20049;-63
2021/09/27 09:42:32;;;;;;;12.30;8.43;;;17.20;99.90;;;;;;5044084;28;20052;-62
2021/09/27 09:45:16;;;;;;;10.80;7.22;;;17.20;99.90;;;;;;5039319;28;20045;-63
2021/09/27 09:47:42;;;;;;;10.63;7.05;;;17.30;99.90;;;;;;5037997;28;20052;-63
2021/09/27 09:50:08;;;;;;;;;;;17.50;99.90;;;;;;5047017;28;20397;-64
2021/09/27 09:52:44;;;;;;;11.85;7.07;;;17.50;99.90;;;;;;5043397;28;19917;-64
2021/09/27 09:55:36;;;;;;;10.88;7.47;;;17.50;99.90;;;;;;5027936;28;20077;-64
2021/09/27 09:58:12;;;;;;;9.27;6.97;;;17.40;99.90;;;;;;5028919;28;20059;-63
2021/09/27 10:00:50;;;;;;;9.95;7.00;;;17.40;99.90;;;;;;5047175;28;20090;-64
2021/09/27 10:03:26;;;;;;;9.80;7.47;;;17.50;99.90;;;;;;5047223;28;20094;-65
2021/09/27 10:05:56;;;;;;;9.43;7.28;;;17.60;99.90;;;;;;5046022;28;20041;-65
2021/09/27 10:08:24;;;;;;;11.70;7.90;;;17.70;99.90;;;;;;5046972;28;20140;-64
2021/09/27 10:11:09;;;;;;;9.70;6.80;;;17.50;99.90;;;;;;5046296;28;20049;-64
2021/09/27 10:13:34;;;;;;;10.02;7.25;;;17.50;99.90;;;;;;5047153;28;20444;-64
2021/09/27 10:16:02;;;;;;;;;;;17.60;99.90;;;;;;5045694;28;20528;-64
2021/09/27 10:18:29;;;;;;;;;;;17.70;99.90;;;;;;5047064;28;19916;-64
2021/09/27 10:21:13;;;;;;;;;;;17.80;99.90;;;;;;5032036;28;19921;-64
2021/09/27 10:23:41;;;;;;;10.45;7.30;;;18.10;99.90;;;;;;5026484;28;19974;-64
2021/09/27 10:26:32;;;;;;;12.07;7.03;;;18.20;99.90;;;;;;5024525;28;20045;-64
2021/09/27 10:29:16;;;;;;;10.63;7.15;;;18.40;99.90;;;;;;5026120;28;20045;-63
2021/09/27 10:31:53;;;;;;;10.73;6.00;;;18.60;99.90;;;;;;5025285;28;20124;-64
2021/09/27 10:34:20;;;;;;;;;;;18.70;99.90;;;;;;5034854;28;20515;-64
2021/09/27 10:36:53;;;;;;;;;;;18.80;99.90;;;;;;5041679;28;20012;-64
2021/09/27 10:39:21;;;;;;;18.70;7.20;;;19.00;99.90;;;;;;5044872;28;20023;-64
2021/09/27 10:42:18;;;;;;;10.73;6.22;;;19.00;99.90;;;;;;5046446;28;20060;-64
2021/09/27 10:44:50;;;;;;;9.57;5.25;;;19.10;99.90;;;;;;5046322;28;20052;-64
2021/09/27 10:47:28;;;;;;;9.73;4.95;;;19.20;99.90;;;;;;5044439;28;20049;-65
2021/09/27 10:50:09;;;;;;;5.35;4.38;;;19.00;99.90;;;;;;5043276;28;20039;-64
2021/09/27 10:52:47;;;;;;;7.25;3.92;;;19.00;99.90;;;;;;5046712;28;20041;-64
2021/09/27 10:55:27;;;;;;;8.63;4.35;;;18.80;99.90;;;;;;5046244;28;20094;-64
2021/09/27 10:58:01;;;;;;;5.25;3.95;;;18.50;99.90;;;;;;5042180;28;20072;-64
2021/09/27 11:00:53;;;;;;;4.93;2.90;;;18.60;99.90;;;;;;5039957;28;20045;-64
2021/09/27 11:03:31;;;;;;;7.38;4.10;;;18.70;99.90;;;;;;5033690;28;20608;-64
2021/09/27 11:06:25;;;;;;;7.60;3.70;;;18.80;99.90;;;;;;5040617;28;20134;-65
2021/09/27 11:09:11;;;;;;;8.57;3.65;;;18.70;99.90;;;;;;5044776;28;20044;-64
2021/09/27 11:11:56;;;;;;;4.63;2.97;;;18.60;99.90;;;;;;5036686;28;20045;-64
2021/09/27 11:14:42;;;;;;;6.93;3.88;;;18.60;99.90;;;;;;5025796;28;20041;-62
2021/09/27 11:17:08;;;;;;;6.65;3.60;;;18.50;99.90;;;;;;5007519;28;20814;-65
2021/09/27 11:19:33;;;;;;;;;;;18.50;99.90;;;;;;5010960;28;20046;-64
2021/09/27 11:22:13;;;;;;;4.82;2.95;;;18.40;99.90;;;;;;5026343;28;19928;-64
2021/09/27 11:24:42;;;;;;;6.65;3.05;;;18.40;99.90;;;;;;5026627;28;20037;-66
2021/09/27 11:27:17;;;;;;;5.32;2.90;;;18.40;99.90;;;;;;5024461;28;20710;-65
2021/09/27 11:29:44;;;;;;;6.15;3.25;;;18.40;99.90;;;;;;5006453;28;20038;-66
2021/09/27 11:32:30;;;;;;;5.40;2.97;;;18.40;99.90;;;;;;5006760;28;20471;-66
2021/09/27 11:35:06;;;;;;;8.75;2.67;;;18.30;99.90;;;;;;5018943;28;20034;-67
2021/09/27 11:37:43;;;;;;;6.13;2.85;;;18.30;99.90;;;;;;5025730;28;20045;-64
2021/09/27 11:40:11;;;;;;;9.52;2.78;;;18.40;99.90;;;;;;5038289;28;20037;-63
2021/09/27 11:42:48;;;;;;;4.78;2.72;;;18.60;99.90;;;;;;5045573;28;20067;-63
2021/09/27 11:45:47;;;;;;;4.15;2.90;;;18.70;99.90;;;;;;5045212;28;20044;-64
2021/09/27 11:48:19;;;;;;;6.60;3.10;;;18.70;99.90;;;;;;5046520;28;20056;-64
2021/09/27 11:51:21;;;;;;;4.72;2.60;;;18.60;99.90;;;;;;5046511;28;20501;-64
2021/09/27 11:54:21;;;;;;;4.45;2.63;;;18.40;99.90;;;;;;5014236;28;20079;-64
2021/09/27 11:56:57;;;;;;;5.25;2.78;;;18.40;99.90;;;;;;5045083;28;20049;-63
2021/09/27 11:59:44;;;;;;;6.28;3.10;;;18.30;99.90;;;;;;5031132;28;20045;-63
2021/09/27 12:02:48;;;;;;;4.10;2.80;;;18.40;99.90;;;;;;5025453;28;20083;-64
2021/09/27 12:05:32;;;;;;;3.65;2.35;;;18.40;99.90;;;;;;5025513;28;20092;-64
2021/09/27 12:08:22;;;;;;;15.90;3.10;;;18.40;99.90;;;;;;5027686;28;20040;-62
2021/09/27 12:10:53;;;;;;;4.97;2.60;;;18.40;99.90;;;;;;5037665;28;20464;-64
2021/09/27 12:13:26;;;;;;;6.95;2.30;;;18.70;99.90;;;;;;5045849;28;20124;-62
2021/09/27 12:15:59;;;;;;;3.63;2.40;;;18.70;99.90;;;;;;5048453;28;20037;-62
2021/09/27 12:18:45;;;;;;;5.72;2.15;;;18.60;99.90;;;;;;5049280;28;20037;-62
2021/09/27 12:21:23;;;;;;;6.15;1.88;;;18.40;99.90;;;;;;5047838;28;20128;-61
2021/09/27 12:24:09;;;;;;;5.70;2.30;;;18.40;99.90;;;;;;5028770;28;20045;-62
2021/09/27 12:26:43;;;;;;;7.63;3.00;;;18.40;99.90;;;;;;5024540;28;20045;-62
2021/09/27 12:29:19;;;;;;;5.13;2.28;;;18.30;99.90;;;;;;5029618;28;20041;-62
2021/09/27 12:32:04;;;;;;;3.22;2.22;;;18.20;99.90;;;;;;5028857;28;20489;-62
2021/09/27 12:34:36;;;;;;;6.88;2.53;;;18.10;99.90;;;;;;5029363;28;20116;-62
2021/09/27 12:37:06;;;;;;;3.70;2.42;;;18.00;99.90;;;;;;5028305;28;20049;-62
2021/09/27 12:39:35;;;;;;;8.57;3.10;;;18.00;99.90;;;;;;5029153;28;20037;-62
2021/09/27 12:42:02;;;;;;;7.95;4.88;;;17.90;99.90;;;;;;5029420;28;20091;-62
2021/09/27 12:44:35;;;;;;;5.75;2.55;;;17.90;99.90;;;;;;5028696;28;20042;-62
2021/09/27 12:47:05;;;;;;;5.30;2.50;;;17.90;99.90;;;;;;5042616;28;20049;-62
2021/09/27 12:50:09;;;;;;;4.10;2.55;;;18.00;99.90;;;;;;5049833;28;20037;-60
2021/09/27 12:52:43;;;;;;;3.75;2.40;;;18.10;99.90;;;;;;5025413;28;20052;-62
2021/09/27 12:55:14;;;;;;;5.78;2.67;;;18.20;99.90;;;;;;5048403;28;20063;-62
2021/09/27 12:57:43;;;;;;;5.03;2.38;;;18.20;99.90;;;;;;5039541;28;20137;-62
2021/09/27 13:00:27;;;;;;;6.28;3.30;;;18.40;99.90;;;;;;5047826;28;20724;-62
2021/09/27 13:02:53;;;;;;;5.32;2.35;;;18.40;99.90;;;;;;5047939;28;20033;-63
2021/09/27 13:05:21;;;;;;;;;;;18.40;99.90;;;;;;5041492;28;20037;-62
2021/09/27 13:07:53;;;;;;;4.88;2.53;;;18.40;99.90;;;;;;5044631;28;20447;-63
2021/09/27 13:10:23;;;;;;;6.85;2.58;;;18.40;99.90;;;;;;5049110;28;20044;-63
2021/09/27 13:13:00;;;;;;;4.00;2.78;;;18.40;99.90;;;;;;5040686;28;20060;-63
2021/09/27 13:15:31;;;;;;;3.97;2.47;;;18.50;99.90;;;;;;5039848;28;20044;-62
2021/09/27 13:18:11;;;;;;;5.38;2.50;;;18.50;99.90;;;;;;5035213;28;20037;-63
2021/09/27 13:21:08;;;;;;;4.78;2.90;;;18.50;99.90;;;;;;5026627;28;20037;-63
2021/09/27 13:23:39;;;;;;;3.78;2.20;;;18.60;99.90;;;;;;5036588;28;20490;-63
2021/09/27 13:26:13;;;;;;;5.40;2.30;;;18.50;99.90;;;;;;5026754;28;20155;-64
2021/09/27 13:28:43;;;;;;;3.72;2.63;;;18.40;99.90;;;;;;5027394;28;20037;-62
2021/09/27 13:31:13;;;;;;;3.80;2.50;;;18.40;99.90;;;;;;5028377;28;20582;-63
2021/09/27 13:33:45;;;;;;;4.85;2.58;;;18.40;99.90;;;;;;5028075;28;20460;-64
2021/09/27 13:36:46;;;;;;;6.22;2.90;;;18.40;99.90;;;;;;5025822;28;20042;-63
2021/09/27 13:39:20;;;;;;;5.22;2.78;;;18.40;99.90;;;;;;5042160;28;20068;-63
2021/09/27 13:41:56;;;;;;;6.10;2.58;;;18.40;99.90;;;;;;5047636;28;20094;-65